createdAt,value
2017-10-19T00:01:55.820Z,98763.77
2017-10-19T00:04:28.384Z,98760.94
2017-10-19T00:07:01.520Z,98756.60
2017-10-19T00:12:10.339Z,98763.83
2017-10-19T00:14:43.015Z,98768.00
2017-10-19T00:17:14.658Z,98762.62
2017-10-19T00:19:54.345Z,98761.39
2017-10-19T00:22:25.150Z,98765.60
2017-10-19T00:24:59.383Z,98763.41
2017-10-19T00:27:33.812Z,98768.06
2017-10-19T00:30:09.238Z,98763.59
2017-10-19T00:32:46.775Z,98764.50
2017-10-19T00:35:20.375Z,98759.19
2017-10-19T00:37:51.466Z,98763.52
2017-10-19T00:40:22.842Z,98765.37
2017-10-19T00:42:53.867Z,98764.97
2017-10-19T00:45:29.424Z,98762.25
2017-10-19T00:48:00.394Z,98762.18
2017-10-19T00:50:31.841Z,98761.05
2017-10-19T00:53:02.825Z,98761.41
2017-10-19T00:55:34.129Z,98760.15
2017-10-19T00:58:05.490Z,98756.45
2017-10-19T01:00:39.046Z,98750.11
2017-10-19T01:03:10.506Z,98753.86
2017-10-19T01:05:42.475Z,98757.23
2017-10-19T01:08:13.664Z,98753.88
2017-10-19T01:10:44.986Z,98750.73
2017-10-19T01:13:16.059Z,98753.89
2017-10-19T01:15:47.515Z,98755.66
2017-10-19T01:18:18.635Z,98760.95
2017-10-19T01:20:50.190Z,98760.55
2017-10-19T01:23:21.131Z,98754.95
2017-10-19T01:25:52.521Z,98756.58
2017-10-19T01:28:24.239Z,98760.63
2017-10-19T01:30:55.428Z,98758.51
2017-10-19T01:33:26.996Z,98759.42
2017-10-19T01:35:59.843Z,98756.46
2017-10-19T01:38:31.572Z,98750.41
2017-10-19T01:41:03.153Z,98751.59
2017-10-19T01:43:39.316Z,98751.02
2017-10-19T01:46:10.934Z,98746.66
2017-10-19T01:48:42.347Z,98746.59
2017-10-19T01:51:13.320Z,98743.73
2017-10-19T01:53:44.415Z,98741.80
2017-10-19T01:56:15.476Z,98741.39
2017-10-19T01:58:48.037Z,98744.05
2017-10-19T02:01:21.266Z,98740.73
2017-10-19T02:03:52.558Z,98747.79
2017-10-19T02:06:23.804Z,98743.73
2017-10-19T02:08:55.135Z,98741.15
2017-10-19T02:12:05.304Z,98739.89
2017-10-19T02:14:38.263Z,98747.12
2017-10-19T02:17:09.251Z,98748.65
2017-10-19T02:19:42.126Z,98747.00
2017-10-19T02:22:13.710Z,98740.27
2017-10-19T02:24:44.839Z,98738.63
2017-10-19T02:27:15.794Z,98739.05
2017-10-19T02:29:46.675Z,98739.39
2017-10-19T02:32:17.889Z,98743.56
2017-10-19T02:34:48.599Z,98746.56
2017-10-19T02:37:19.857Z,98748.48
2017-10-19T02:39:50.915Z,98750.69
2017-10-19T02:42:21.951Z,98750.06
2017-10-19T02:44:52.923Z,98745.34
2017-10-19T02:47:24.147Z,98738.91
2017-10-19T02:49:55.694Z,98741.98
2017-10-19T02:52:26.885Z,98749.01
2017-10-19T02:54:58.154Z,98749.30
2017-10-19T02:57:29.415Z,98744.56
2017-10-19T03:00:00.534Z,98750.61
2017-10-19T03:02:32.163Z,98751.48
2017-10-19T03:05:03.263Z,98750.37
2017-10-19T03:07:36.290Z,98746.03
2017-10-19T03:10:07.645Z,98750.44
2017-10-19T03:12:42.370Z,98747.55
2017-10-19T03:15:13.335Z,98748.33
2017-10-19T03:17:44.219Z,98748.59
2017-10-19T03:20:15.223Z,98754.26
2017-10-19T03:22:46.591Z,98748.31
2017-10-19T03:25:17.204Z,98746.28
2017-10-19T03:27:48.275Z,98748.09
2017-10-19T03:30:20.169Z,98749.58
2017-10-19T03:32:51.287Z,98752.23
2017-10-19T03:35:22.364Z,98750.33
2017-10-19T03:37:53.372Z,98746.09
2017-10-19T03:40:24.950Z,98747.84
2017-10-19T03:42:55.974Z,98744.54
2017-10-19T03:45:27.022Z,98742.31
2017-10-19T03:47:58.366Z,98744.13
2017-10-19T03:50:29.531Z,98743.44
2017-10-19T03:53:01.479Z,98747.80
2017-10-19T03:55:32.845Z,98750.20
2017-10-19T03:58:04.040Z,98743.02
2017-10-19T04:00:36.604Z,98743.02
2017-10-19T04:03:07.827Z,98745.45
2017-10-19T04:05:42.528Z,98744.48
2017-10-19T04:08:14.538Z,98743.34
2017-10-19T04:10:53.405Z,98740.50
2017-10-19T04:13:24.675Z,98742.73
2017-10-19T04:15:55.906Z,98736.10
2017-10-19T04:18:27.923Z,98743.38
2017-10-19T04:21:00.190Z,98744.59
2017-10-19T04:23:31.620Z,98744.66
2017-10-19T04:26:04.220Z,98743.66
2017-10-19T04:28:38.471Z,98738.96
2017-10-19T04:31:10.515Z,98743.83
2017-10-19T04:33:42.926Z,98742.80
2017-10-19T04:36:14.235Z,98743.64
2017-10-19T04:38:45.638Z,98734.39
2017-10-19T04:41:16.892Z,98734.39
2017-10-19T04:43:47.993Z,98728.09
2017-10-19T04:46:18.662Z,98724.04
2017-10-19T04:48:49.232Z,98729.57
2017-10-19T04:51:21.382Z,98733.88
2017-10-19T04:53:56.942Z,98727.11
2017-10-19T04:56:28.297Z,98729.60
2017-10-19T04:58:59.620Z,98724.66
2017-10-19T05:01:30.663Z,98728.15
2017-10-19T05:04:02.488Z,98731.99
2017-10-19T05:06:38.337Z,98728.34
2017-10-19T05:09:11.411Z,98731.45
2017-10-19T05:11:42.530Z,98725.92
2017-10-19T05:14:14.872Z,98726.02
2017-10-19T05:16:46.258Z,98729.03
2017-10-19T05:19:17.099Z,98729.08
2017-10-19T05:21:48.182Z,98724.87
2017-10-19T05:24:19.506Z,98727.75
2017-10-19T05:26:49.981Z,98724.74
2017-10-19T05:29:21.143Z,98727.42
2017-10-19T05:31:52.714Z,98726.32
2017-10-19T05:34:23.578Z,98730.89
2017-10-19T05:36:55.649Z,98727.34
2017-10-19T05:39:26.512Z,98736.85
2017-10-19T05:41:57.864Z,98730.96
2017-10-19T05:44:28.731Z,98741.80
2017-10-19T05:46:59.279Z,98745.52
2017-10-19T05:49:31.006Z,98738.38
2017-10-19T05:52:02.001Z,98746.42
2017-10-19T05:54:32.912Z,98743.92
2017-10-19T05:57:04.611Z,98743.21
2017-10-19T05:59:38.755Z,98750.23
2017-10-19T06:02:09.484Z,98756.27
2017-10-19T06:04:42.228Z,98748.84
2017-10-19T06:07:12.761Z,98751.55
2017-10-19T06:09:44.256Z,98749.27
2017-10-19T06:12:15.826Z,98753.02
2017-10-19T06:14:46.338Z,98765.77
2017-10-19T06:17:17.915Z,98765.70
2017-10-19T06:19:49.269Z,98768.28
2017-10-19T06:22:20.260Z,98762.56
2017-10-19T06:24:50.715Z,98775.14
2017-10-19T06:27:21.555Z,98772.92
2017-10-19T06:29:53.529Z,98773.21
2017-10-19T06:32:24.682Z,98782.01
2017-10-19T06:34:55.929Z,98784.66
2017-10-19T06:37:26.570Z,98785.94
2017-10-19T06:39:57.036Z,98782.48
2017-10-19T06:42:28.049Z,98778.92
2017-10-19T06:44:59.091Z,98778.15
2017-10-19T06:47:30.051Z,98781.87
2017-10-19T06:50:01.322Z,98781.67
2017-10-19T06:52:32.486Z,98788.38
2017-10-19T06:55:03.566Z,98795.04
2017-10-19T07:00:12.636Z,98786.52
2017-10-19T07:02:44.950Z,98788.23
2017-10-19T07:05:17.519Z,98788.50
2017-10-19T07:07:49.323Z,98782.55
2017-10-19T07:10:20.025Z,98789.69
2017-10-19T07:12:50.607Z,98791.70
2017-10-19T07:15:22.241Z,98800.70
2017-10-19T07:17:54.937Z,98801.00
2017-10-19T07:20:26.759Z,98795.45
2017-10-19T07:22:59.693Z,98794.91
2017-10-19T07:25:31.968Z,98797.95
2017-10-19T07:28:02.984Z,98804.92
2017-10-19T07:30:33.533Z,98802.75
2017-10-19T07:33:05.604Z,98808.39
2017-10-19T07:35:37.881Z,98809.02
2017-10-19T07:38:08.528Z,98810.31
2017-10-19T07:40:40.863Z,98802.58
2017-10-19T07:43:11.625Z,98810.83
2017-10-19T07:45:43.194Z,98807.38
2017-10-19T07:48:14.531Z,98803.50
2017-10-19T07:50:44.995Z,98808.72
2017-10-19T07:53:15.642Z,98805.93
2017-10-19T07:55:46.935Z,98806.56
2017-10-19T07:58:17.724Z,98799.85
2017-10-19T08:00:48.367Z,98796.13
2017-10-19T08:03:19.390Z,98790.64
2017-10-19T08:05:51.767Z,98792.97
2017-10-19T08:08:25.355Z,98793.34
2017-10-19T08:10:55.844Z,98796.63
2017-10-19T08:13:27.387Z,98802.92
2017-10-19T08:15:58.875Z,98802.84
2017-10-19T08:18:30.122Z,98801.97
2017-10-19T08:21:02.423Z,98798.34
2017-10-19T08:23:33.862Z,98798.43
2017-10-19T08:26:04.687Z,98791.12
2017-10-19T08:28:37.928Z,98788.63
2017-10-19T08:31:09.103Z,98792.77
2017-10-19T08:33:43.699Z,98789.06
2017-10-19T08:36:14.790Z,98788.92
2017-10-19T08:38:45.927Z,98789.63
2017-10-19T08:41:16.873Z,98796.28
2017-10-19T08:43:48.060Z,98790.17
2017-10-19T08:46:19.368Z,98789.13
2017-10-19T08:48:50.547Z,98791.07
2017-10-19T08:51:22.166Z,98788.45
2017-10-19T08:53:53.327Z,98785.56
2017-10-19T08:56:24.484Z,98787.03
2017-10-19T08:58:56.098Z,98786.88
2017-10-19T09:01:26.756Z,98793.19
2017-10-19T09:03:58.029Z,98794.55
2017-10-19T09:06:28.538Z,98796.70
2017-10-19T09:08:59.643Z,98799.92
2017-10-19T09:11:30.119Z,98804.41
2017-10-19T09:14:01.401Z,98801.25
2017-10-19T09:16:31.920Z,98805.16
2017-10-19T09:19:02.550Z,98805.05
2017-10-19T09:21:33.075Z,98794.55
2017-10-19T09:24:04.106Z,98801.06
2017-10-19T09:26:44.973Z,98799.02
2017-10-19T09:29:17.214Z,98796.76
2017-10-19T09:31:49.061Z,98796.60
2017-10-19T09:34:20.372Z,98790.89
2017-10-19T09:36:57.121Z,98789.30
2017-10-19T09:39:28.505Z,98788.97
2017-10-19T09:42:07.232Z,98792.41
2017-10-19T09:44:54.338Z,98787.61
2017-10-19T09:47:25.582Z,98787.20
2017-10-19T09:49:57.191Z,98790.34
2017-10-19T09:52:30.431Z,98793.82
2017-10-19T09:55:03.202Z,98788.68
2017-10-19T09:57:33.710Z,98793.64
2017-10-19T10:00:11.652Z,98797.41
2017-10-19T10:02:50.952Z,98803.47
2017-10-19T10:05:22.168Z,98802.50
2017-10-19T10:07:54.012Z,98802.96
2017-10-19T10:10:28.647Z,98800.45
2017-10-19T10:13:00.310Z,98797.64
2017-10-19T10:15:32.943Z,98799.32
2017-10-19T10:18:06.035Z,98799.94
2017-10-19T10:20:41.848Z,98792.47
2017-10-19T10:23:12.986Z,98794.81
2017-10-19T10:25:44.005Z,98792.16
2017-10-19T10:28:15.511Z,98789.86
2017-10-19T10:30:48.541Z,98782.58
2017-10-19T10:33:21.247Z,98787.44
2017-10-19T10:35:53.855Z,98791.83
2017-10-19T10:38:25.877Z,98783.11
2017-10-19T10:40:57.312Z,98781.56
2017-10-19T10:43:33.685Z,98778.56
2017-10-19T10:46:04.726Z,98780.84
2017-10-19T10:48:38.497Z,98776.19
2017-10-19T10:51:12.155Z,98769.61
2017-10-19T10:53:43.551Z,98764.19
2017-10-19T10:56:14.334Z,98762.09
2017-10-19T10:58:51.002Z,98761.19
2017-10-19T11:01:24.141Z,98751.66
2017-10-19T11:03:56.370Z,98756.58
2017-10-19T11:06:27.814Z,98759.67
2017-10-19T11:08:59.796Z,98755.61
2017-10-19T11:11:32.667Z,98751.41
2017-10-19T11:14:05.151Z,98753.50
2017-10-19T11:16:39.836Z,98746.55
2017-10-19T11:19:11.982Z,98744.39
2017-10-19T11:21:43.916Z,98750.16
2017-10-19T11:24:26.598Z,98739.15
2017-10-19T11:27:19.904Z,98744.23
2017-10-19T11:34:54.595Z,98736.13
2017-10-19T11:37:49.969Z,98719.25
2017-10-19T11:40:43.884Z,98719.40
2017-10-19T11:43:19.994Z,98713.65
2017-10-19T11:45:51.215Z,98711.52
2017-10-19T11:48:24.754Z,98698.84
2017-10-19T11:51:25.978Z,98699.41
2017-10-19T11:54:05.200Z,98693.85
2017-10-19T11:56:43.679Z,98691.25
2017-10-19T11:59:15.539Z,98684.96
2017-10-19T12:01:53.606Z,98681.88
2017-10-19T12:04:30.548Z,98682.02
2017-10-19T12:07:01.994Z,98684.84
2017-10-19T12:10:12.997Z,98686.12
2017-10-19T12:12:43.744Z,98671.64
2017-10-19T12:15:16.031Z,98677.79
2017-10-19T12:17:49.055Z,98672.58
2017-10-19T12:20:24.156Z,98685.94
2017-10-19T12:22:57.672Z,98672.60
2017-10-19T12:25:44.007Z,98676.22
2017-10-19T12:28:21.770Z,98677.77
2017-10-19T12:31:08.174Z,98681.10
2017-10-19T12:33:42.112Z,98677.64
2017-10-19T12:36:12.897Z,98680.45
2017-10-19T12:38:45.925Z,98674.35
2017-10-19T12:41:16.844Z,98672.85
2017-10-19T12:43:47.726Z,98673.91
2017-10-19T12:46:18.722Z,98676.13
2017-10-19T12:48:50.182Z,98668.31
2017-10-19T12:51:21.086Z,98669.04
2017-10-19T12:53:53.752Z,98668.85
2017-10-19T12:56:24.899Z,98667.37
2017-10-19T12:58:56.564Z,98665.08
2017-10-19T13:01:27.373Z,98663.43
2017-10-19T13:03:58.071Z,98656.55
2017-10-19T13:06:31.511Z,98656.02
2017-10-19T13:09:02.525Z,98659.98
2017-10-19T13:11:34.036Z,98659.27
2017-10-19T13:14:07.385Z,98659.04
2017-10-19T13:16:41.476Z,98659.87
2017-10-19T13:19:13.547Z,98657.67
2017-10-19T13:21:44.921Z,98658.41
2017-10-19T13:24:16.311Z,98650.81
2017-10-19T13:26:50.536Z,98655.22
2017-10-19T13:29:21.468Z,98657.14
2017-10-19T13:31:55.786Z,98645.44
2017-10-19T13:34:31.892Z,98652.40
2017-10-19T13:37:03.592Z,98643.33
2017-10-19T13:39:42.461Z,98643.95
2017-10-19T13:45:26.753Z,98638.66
2017-10-19T13:47:58.021Z,98635.30
2017-10-19T13:50:31.051Z,98635.53
2017-10-19T13:53:02.311Z,98633.25
2017-10-19T13:55:34.248Z,98626.67
2017-10-19T13:58:05.965Z,98630.34
2017-10-19T14:00:39.923Z,98627.73
2017-10-19T14:03:11.357Z,98631.48
2017-10-19T14:05:45.629Z,98626.45
2017-10-19T14:08:17.761Z,98623.53
2017-10-19T14:10:50.808Z,98619.52
2017-10-19T14:13:24.975Z,98625.55
2017-10-19T14:15:56.816Z,98620.95
2017-10-19T14:18:29.387Z,98626.09
2017-10-19T14:21:02.049Z,98619.41
2017-10-19T14:23:37.366Z,98613.20
2017-10-19T14:26:09.805Z,98615.73
2017-10-19T14:28:45.819Z,98617.42
2017-10-19T14:31:18.314Z,98613.37
2017-10-19T14:33:50.909Z,98616.01
2017-10-19T14:36:25.335Z,98615.38
2017-10-19T14:39:05.633Z,98617.59
2017-10-19T14:41:45.235Z,98613.36
2017-10-19T14:44:18.822Z,98610.86
2017-10-19T14:46:52.991Z,98604.88
2017-10-19T14:52:14.340Z,98602.28
2017-10-19T14:54:46.332Z,98610.67
2017-10-19T14:57:25.313Z,98608.34
2017-10-19T15:00:06.517Z,98610.39
2017-10-19T15:02:42.879Z,98601.38
2017-10-19T15:05:16.795Z,98601.11
2017-10-19T15:07:51.539Z,98597.44
2017-10-19T15:10:22.785Z,98596.50
2017-10-19T15:12:54.145Z,98604.88
2017-10-19T15:15:30.435Z,98600.17
2017-10-19T15:18:02.850Z,98598.68
2017-10-19T15:20:41.347Z,98595.52
2017-10-19T15:23:14.126Z,98591.07
2017-10-19T15:25:48.861Z,98581.52
2017-10-19T15:28:20.119Z,98585.38
2017-10-19T15:30:53.015Z,98585.06
2017-10-19T15:33:25.379Z,98581.59
2017-10-19T15:36:01.687Z,98586.40
2017-10-19T15:38:33.526Z,98576.48
2017-10-19T15:41:04.471Z,98576.28
2017-10-19T15:43:35.564Z,98579.45
2017-10-19T15:46:06.982Z,98578.31
2017-10-19T15:48:38.807Z,98588.64
2017-10-19T15:51:16.628Z,98590.84
2017-10-19T15:53:48.403Z,98590.34
2017-10-19T15:56:20.321Z,98585.52
2017-10-19T15:58:51.286Z,98587.20
2017-10-19T16:01:23.715Z,98593.56
2017-10-19T16:03:57.458Z,98583.59
2017-10-19T16:06:28.868Z,98593.00
2017-10-19T16:09:00.754Z,98594.91
2017-10-19T16:11:32.465Z,98600.83
2017-10-19T16:14:05.061Z,98601.88
2017-10-19T16:17:05.248Z,98607.37
2017-10-19T16:24:12.387Z,98605.55
2017-10-19T16:26:43.632Z,98606.82
2017-10-19T16:29:14.700Z,98606.09
2017-10-19T16:31:45.534Z,98607.14
2017-10-19T16:34:26.557Z,98608.61
2017-10-19T16:36:58.097Z,98611.59
2017-10-19T16:39:29.361Z,98611.50
2017-10-19T16:42:00.801Z,98618.50
2017-10-19T16:44:33.801Z,98616.52
2017-10-19T16:47:07.672Z,98611.38
2017-10-19T16:49:43.271Z,98619.02
2017-10-19T16:52:15.801Z,98615.62
2017-10-19T16:54:47.174Z,98622.72
2017-10-19T16:57:19.306Z,98620.43
2017-10-19T16:59:50.974Z,98618.62
2017-10-19T17:02:22.454Z,98616.58
2017-10-19T17:04:55.611Z,98621.03
2017-10-19T17:07:27.414Z,98621.11
2017-10-19T17:09:58.997Z,98620.48
2017-10-19T17:12:30.061Z,98620.20
2017-10-19T17:15:03.901Z,98623.45
2017-10-19T17:17:36.576Z,98626.92
2017-10-19T17:20:20.025Z,98623.95
2017-10-19T17:22:53.128Z,98625.84
2017-10-19T17:25:28.685Z,98633.47
2017-10-19T17:28:07.333Z,98633.36
2017-10-19T17:30:43.159Z,98632.80
2017-10-19T17:33:14.052Z,98630.66
2017-10-19T17:35:45.800Z,98637.81
2017-10-19T17:38:18.145Z,98637.91
2017-10-19T17:40:52.534Z,98637.68
2017-10-19T17:43:24.132Z,98633.74
2017-10-19T17:45:57.320Z,98636.73
2017-10-19T17:48:28.590Z,98633.98
2017-10-19T17:51:01.361Z,98626.76
2017-10-19T17:53:33.647Z,98630.56
2017-10-19T17:56:09.081Z,98629.55
2017-10-19T17:58:44.074Z,98635.28
2017-10-19T18:01:15.711Z,98634.52
2017-10-19T18:03:47.391Z,98628.61
2017-10-19T18:06:18.334Z,98633.38
2017-10-19T18:08:50.664Z,98627.78
2017-10-19T18:11:26.928Z,98632.39
2017-10-19T18:13:58.180Z,98633.17
2017-10-19T18:16:33.243Z,98634.90
2017-10-19T18:19:07.048Z,98627.27
2017-10-19T18:21:42.473Z,98629.98
2017-10-19T18:24:13.589Z,98630.99
2017-10-19T18:26:44.950Z,98635.84
2017-10-19T18:29:16.548Z,98632.66
2017-10-19T18:31:48.771Z,98633.34
2017-10-19T18:34:30.376Z,98629.66
2017-10-19T18:37:04.521Z,98630.16
2017-10-19T18:39:39.917Z,98628.33
2017-10-19T18:42:15.429Z,98628.99
2017-10-19T18:44:47.290Z,98631.89
2017-10-19T18:47:18.418Z,98636.36
2017-10-19T18:49:51.609Z,98631.20
2017-10-19T18:52:22.735Z,98636.59
2017-10-19T18:54:55.877Z,98634.68
2017-10-19T18:57:33.022Z,98631.88
2017-10-19T19:00:09.205Z,98634.40
2017-10-19T19:02:47.190Z,98630.04
2017-10-19T19:05:19.660Z,98627.27
2017-10-19T19:07:51.951Z,98628.45
2017-10-19T19:10:24.064Z,98629.78
2017-10-19T19:12:56.809Z,98629.61
2017-10-19T19:15:28.630Z,98636.83
2017-10-19T19:18:03.078Z,98630.11
2017-10-19T19:20:36.460Z,98635.17
2017-10-19T19:23:09.483Z,98629.86
2017-10-19T19:25:45.059Z,98630.03
2017-10-19T19:28:16.169Z,98640.44
2017-10-19T19:30:46.918Z,98644.97
2017-10-19T19:33:18.210Z,98642.45
2017-10-19T19:35:49.519Z,98637.66
2017-10-19T19:38:22.269Z,98638.75
2017-10-19T19:40:53.803Z,98642.77
2017-10-19T19:43:24.916Z,98635.63
2017-10-19T19:45:55.609Z,98637.55
2017-10-19T19:48:26.519Z,98627.72
2017-10-19T19:50:57.636Z,98634.34
2017-10-19T19:53:28.940Z,98638.30
2017-10-19T19:55:59.738Z,98631.08
2017-10-19T19:58:31.149Z,98634.50
2017-10-19T20:01:02.010Z,98633.14
2017-10-19T20:03:33.177Z,98633.89
2017-10-19T20:06:05.684Z,98626.13
2017-10-19T20:08:39.670Z,98622.77
2017-10-19T20:11:16.106Z,98626.38
2017-10-19T20:13:47.183Z,98631.86
2017-10-19T20:16:18.115Z,98631.80
2017-10-19T20:18:50.581Z,98636.84
2017-10-19T20:21:22.804Z,98644.63
2017-10-19T20:23:54.198Z,98643.64
2017-10-19T20:26:25.135Z,98649.27
2017-10-19T20:28:56.432Z,98650.69
2017-10-19T20:31:28.868Z,98646.28
2017-10-19T20:33:59.607Z,98646.95
2017-10-19T20:36:30.315Z,98649.63
2017-10-19T20:39:01.331Z,98641.42
2017-10-19T20:41:32.740Z,98641.72
2017-10-19T20:44:03.673Z,98642.36
2017-10-19T20:46:35.819Z,98641.20
2017-10-19T20:49:07.187Z,98638.17
2017-10-19T20:51:40.623Z,98631.80
2017-10-19T20:54:12.210Z,98635.28
2017-10-19T20:56:43.424Z,98636.27
2017-10-19T20:59:16.522Z,98626.31
2017-10-19T21:45:31.151Z,98619.36
2017-10-19T21:48:02.876Z,98613.09
2017-10-19T21:50:36.645Z,98612.64
2017-10-19T21:53:09.389Z,98622.41
2017-10-19T21:55:42.681Z,98625.92
2017-10-19T21:58:14.032Z,98622.81
2017-10-19T22:00:51.227Z,98625.17
2017-10-19T22:03:23.430Z,98630.03
2017-10-19T22:05:54.910Z,98630.09
2017-10-19T22:08:26.448Z,98627.83
2017-10-19T22:10:57.184Z,98624.80
2017-10-19T22:13:28.245Z,98625.01
2017-10-19T22:15:59.028Z,98626.69
2017-10-19T22:18:31.036Z,98621.53
2017-10-19T22:21:02.404Z,98618.08
2017-10-19T22:23:33.497Z,98612.72
2017-10-19T22:26:04.909Z,98613.55
2017-10-19T22:28:38.982Z,98613.55
2017-10-19T22:31:09.680Z,98616.16
2017-10-19T22:33:42.445Z,98607.95
2017-10-19T22:36:13.619Z,98611.48
2017-10-19T22:38:44.215Z,98610.36
2017-10-19T22:41:15.717Z,98605.14
2017-10-19T22:43:46.816Z,98606.73
2017-10-19T22:46:17.733Z,98601.58
2017-10-19T22:48:49.487Z,98601.70
2017-10-19T22:51:20.801Z,98602.47
2017-10-19T22:53:52.160Z,98596.89
2017-10-19T22:56:23.401Z,98599.53
2017-10-19T22:58:55.494Z,98602.00
2017-10-19T23:01:26.585Z,98602.68
2017-10-19T23:03:57.931Z,98604.13
2017-10-19T23:06:30.337Z,98596.45
2017-10-19T23:09:02.321Z,98602.34
2017-10-19T23:11:33.256Z,98594.48
2017-10-19T23:14:03.959Z,98601.55
2017-10-19T23:16:37.663Z,98603.64
2017-10-19T23:19:08.731Z,98600.46
2017-10-19T23:21:42.504Z,98602.97
2017-10-19T23:24:17.272Z,98598.91
2017-10-19T23:26:48.663Z,98593.64
2017-10-19T23:29:19.951Z,98592.06
2017-10-19T23:31:51.898Z,98595.70
2017-10-19T23:34:23.231Z,98599.30
2017-10-19T23:36:54.871Z,98603.55
2017-10-19T23:39:26.180Z,98600.42
2017-10-19T23:41:57.566Z,98605.89
2017-10-19T23:44:28.744Z,98606.84
2017-10-19T23:47:00.315Z,98610.43
2017-10-19T23:49:31.850Z,98605.86
2017-10-19T23:52:02.833Z,98611.08
2017-10-19T23:54:34.438Z,98608.16
2017-10-19T23:57:05.671Z,98606.33
2017-10-19T23:59:39.901Z,98611.30
